Time;durP1;ratioP1;P1;durP2;ratioP2;P2;SDS_P1;SDS_P2;PMS_P1;PMS_P2;Temp;Humidity;BMP_temperature;BMP_pressure;BME280_temperature;BME280_humidity;BME280_pressure;Samples;Min_cycle;Max_cycle;Signal;HPM_P1;HPM_P2
2021/03/07 00:02:02;;;;;;;10.13;3.27;;;;;;;2.13;64.38;102249.03;5073767;28;20055;-67
2021/03/07 00:04:27;;;;;;;10.20;3.00;;;;;;;2.12;64.00;102248.16;5073752;28;20036;-67
2021/03/07 00:06:52;;;;;;;9.13;3.63;;;;;;;2.10;64.44;102244.75;5073527;28;20044;-67
2021/03/07 00:09:18;;;;;;;13.83;3.43;;;;;;;2.09;64.46;102235.16;5073244;28;20055;-67
2021/03/07 00:11:43;;;;;;;7.77;4.10;;;;;;;2.06;64.75;102230.88;5073431;28;20365;-67
2021/03/07 00:14:08;;;;;;;19.90;3.97;;;;;;;2.08;65.09;102226.41;5073444;28;20032;-67
2021/03/07 00:16:33;;;;;;;6.20;3.40;;;;;;;2.10;65.07;102219.25;5072410;28;20441;-67
2021/03/07 00:18:59;;;;;;;6.40;2.60;;;;;;;2.04;64.75;102216.91;5072089;28;20043;-67
2021/03/07 00:21:24;;;;;;;7.50;2.83;;;;;;;2.06;65.11;102220.34;5073308;28;20052;-67
2021/03/07 00:23:49;;;;;;;8.67;3.30;;;;;;;2.06;65.53;102215.06;5072253;28;20041;-67
2021/03/07 00:26:15;;;;;;;9.40;2.70;;;;;;;2.06;65.15;102219.47;5073028;28;20197;-67
2021/03/07 00:28:40;;;;;;;8.93;3.60;;;;;;;2.05;65.23;102213.34;5071891;28;20032;-67
2021/03/07 00:31:06;;;;;;;10.47;3.07;;;;;;;2.14;65.05;102213.84;5055479;28;20047;-67
2021/03/07 00:33:31;;;;;;;7.67;3.20;;;;;;;2.08;65.40;102205.31;5072168;28;20040;-67
2021/03/07 00:35:56;;;;;;;7.63;4.33;;;;;;;2.06;65.70;102201.03;5073047;28;20044;-67
2021/03/07 00:38:22;;;;;;;12.37;4.20;;;;;;;2.02;65.07;102202.13;5072698;28;20036;-67
2021/03/07 00:40:47;;;;;;;11.03;3.97;;;;;;;2.05;65.65;102202.81;5072807;28;20054;-67
2021/03/07 00:43:12;;;;;;;8.27;3.70;;;;;;;2.11;66.19;102209.59;5055216;28;20040;-67
2021/03/07 00:45:38;;;;;;;6.13;3.27;;;;;;;2.07;65.51;102200.97;5071873;28;20127;-67
2021/03/07 00:48:03;;;;;;;12.47;3.07;;;;;;;2.15;64.18;102194.47;5072415;28;20036;-67
2021/03/07 00:50:29;;;;;;;8.30;3.47;;;;;;;2.11;65.09;102191.16;5072631;28;20040;-67
2021/03/07 00:52:55;;;;;;;7.93;3.60;;;;;;;2.04;65.49;102198.47;5072669;28;20037;-67
2021/03/07 00:55:20;;;;;;;14.07;3.65;;;;;;;2.08;65.93;102201.81;5054913;28;20036;-67
2021/03/07 00:57:45;;;;;;;7.63;4.17;;;;;;;2.07;66.44;102197.47;5054555;28;20032;-67
2021/03/07 01:00:16;;;;;;;11.17;3.33;;;;;;;2.05;66.22;102184.38;5054997;28;20788;-67
2021/03/07 01:02:41;;;;;;;12.15;3.10;;;;;;;2.02;66.15;102192.41;5072402;28;20028;-67
2021/03/07 01:05:07;;;;;;;10.87;3.20;;;;;;;1.99;66.88;102182.03;5054798;28;20047;-67
2021/03/07 01:07:34;;;;;;;6.97;3.35;;;;;;;2.04;66.79;102193.22;5037675;28;20037;-67
2021/03/07 01:09:59;;;;;;;;;;;;;;;1.97;67.03;102189.16;5054658;28;20047;-67
2021/03/07 01:12:24;;;;;;;;;;;;;;;1.97;66.98;102183.88;5038477;28;20257;-67
2021/03/07 01:14:50;;;;;;;12.47;4.07;;;;;;;2.01;66.65;102179.31;5072215;28;20333;-67
2021/03/07 01:17:16;;;;;;;8.02;3.20;;;;;;;2.00;67.30;102169.72;5054484;28;20335;-67
2021/03/07 01:19:41;;;;;;;8.77;3.28;;;;;;;1.97;66.87;102164.59;5054370;28;20075;-67
2021/03/07 01:22:07;;;;;;;19.37;5.43;;;;;;;1.99;67.13;102162.72;5072139;28;20075;-67
2021/03/07 01:24:33;;;;;;;10.38;4.22;;;;;;;2.01;66.95;102164.34;5071904;28;20043;-67
2021/03/07 01:26:58;;;;;;;11.93;4.27;;;;;;;2.03;67.12;102159.03;5071867;28;20036;-67
2021/03/07 01:29:23;;;;;;;11.77;4.17;;;;;;;1.97;66.76;102152.28;5071646;28;20115;-67
2021/03/07 01:31:49;;;;;;;6.83;3.67;;;;;;;2.00;67.20;102149.47;5071852;28;20068;-67
2021/03/07 01:34:15;;;;;;;15.18;4.28;;;;;;;2.01;66.78;102132.75;5071805;28;20091;-67
2021/03/07 01:36:40;;;;;;;10.60;5.17;;;;;;;1.99;67.42;102137.25;5071648;28;20103;-67
2021/03/07 01:39:06;;;;;;;18.43;3.83;;;;;;;2.03;67.50;102127.41;5071364;28;20438;-67
2021/03/07 01:41:31;;;;;;;9.55;4.05;;;;;;;2.03;67.22;102122.13;5037423;28;20037;-67
2021/03/07 01:43:56;;;;;;;6.87;3.80;;;;;;;2.01;67.26;102124.00;5071757;28;20050;-67
2021/03/07 01:46:22;;;;;;;11.95;4.15;;;;;;;1.99;66.92;102120.56;5053982;28;20037;-67
2021/03/07 01:48:48;;;;;;;7.22;4.25;;;;;;;1.98;67.12;102110.97;5056006;28;20442;-67
2021/03/07 01:51:14;;;;;;;9.98;4.45;;;;;;;1.99;66.40;102118.81;5071596;28;20358;-67
2021/03/07 01:53:41;;;;;;;12.48;3.90;;;;;;;1.95;66.01;102111.97;5071418;28;20056;-67
2021/03/07 01:56:09;;;;;;;9.82;4.57;;;;;;;1.94;65.11;102104.97;5070620;28;20358;-67
2021/03/07 01:58:37;;;;;;;9.43;3.60;;;;;;;1.95;65.06;102101.44;5070317;28;20101;-67
2021/03/07 02:01:04;;;;;;;9.77;3.72;;;;;;;1.95;64.78;102097.97;5070515;28;20040;-67
2021/03/07 02:03:30;;;;;;;9.48;3.28;;;;;;;1.88;65.71;102094.75;5071463;28;20037;-67
2021/03/07 02:05:55;;;;;;;6.67;3.37;;;;;;;1.88;65.73;102094.75;5070425;28;20039;-67
2021/03/07 02:08:22;;;;;;;9.07;3.73;;;;;;;1.92;65.16;102091.06;5070901;28;20048;-67
2021/03/07 02:10:50;;;;;;;8.88;3.75;;;;;;;1.89;65.28;102091.19;5071268;28;20102;-67
2021/03/07 02:13:21;;;;;;;8.95;3.30;;;;;;;1.85;65.86;102084.34;5071279;28;20357;-67
2021/03/07 02:15:50;;;;;;;6.93;2.70;;;;;;;1.88;65.50;102084.22;5071422;28;20054;-67
2021/03/07 02:18:16;;;;;;;10.95;3.75;;;;;;;1.93;65.29;102076.94;5070965;28;20369;-67
2021/03/07 02:20:47;;;;;;;11.07;3.55;;;;;;;1.94;65.39;102075.16;5071016;28;20512;-67
2021/03/07 02:23:35;;;;;;;9.73;3.25;;;;;;;1.93;64.55;102074.31;5069490;28;20045;-67
2021/03/07 02:26:02;;;;;;;9.68;4.38;;;;;;;1.96;64.24;102071.53;5070273;28;20052;-67
2021/03/07 02:28:27;;;;;;;13.68;3.58;;;;;;;1.89;64.24;102078.03;5070886;28;20051;-67
2021/03/07 02:30:54;;;;;;;7.60;3.03;;;;;;;1.85;64.66;102068.56;5070345;28;20428;-67
2021/03/07 02:33:36;;;;;;;12.98;3.80;;;;;;;1.84;64.27;102066.84;5070098;28;20040;-67
2021/03/07 02:36:14;;;;;;;11.18;3.58;;;;;;;1.84;64.05;102070.34;5070067;28;20059;-67
2021/03/07 02:38:42;;;;;;;10.45;3.92;;;;;;;1.85;64.42;102063.28;5070868;28;20125;-67
2021/03/07 02:41:10;;;;;;;8.90;2.85;;;;;;;1.78;64.31;102048.72;5070980;28;20519;-67
2021/03/07 02:43:42;;;;;;;7.28;3.33;;;;;;;1.87;64.01;102058.81;5070032;28;20472;-67
2021/03/07 02:46:19;;;;;;;15.00;4.10;;;;;;;1.85;64.26;102051.00;5053357;28;20381;-67
2021/03/07 02:48:51;;;;;;;7.75;3.30;;;;;;;1.80;64.57;102060.91;5070565;28;20135;-67
2021/03/07 02:51:17;;;;;;;11.68;3.83;;;;;;;1.81;65.08;102064.38;5053323;28;20115;-67
2021/03/07 02:53:42;;;;;;;12.13;3.10;;;;;;;1.79;65.26;102058.34;5070976;28;20721;-67
2021/03/07 02:56:15;;;;;;;17.20;3.97;;;;;;;1.74;65.84;102055.06;5070759;28;20055;-67
2021/03/07 02:58:42;;;;;;;12.75;3.53;;;;;;;1.74;65.84;102039.28;5053073;28;20028;-67
2021/03/07 03:01:10;;;;;;;10.55;3.45;;;;;;;1.80;65.83;102034.56;5053269;28;20036;-67
2021/03/07 03:03:40;;;;;;;11.43;3.78;;;;;;;1.76;65.69;102030.38;5053533;28;20052;-67
2021/03/07 03:06:08;;;;;;;18.65;5.60;;;;;;;1.75;65.75;102035.69;5070708;28;20040;-67
2021/03/07 03:08:34;;;;;;;34.80;5.40;;;;;;;1.75;66.12;102033.91;5070373;28;20044;-67
2021/03/07 03:11:01;;;;;;;12.00;4.15;;;;;;;1.79;65.58;102026.72;5070746;28;20133;-67
2021/03/07 03:13:27;;;;;;;9.25;3.28;;;;;;;1.77;65.80;102024.16;5070757;28;20040;-67
2021/03/07 03:15:54;;;;;;;7.63;3.75;;;;;;;1.73;66.07;102022.59;5070753;28;20041;-67
2021/03/07 03:18:21;;;;;;;9.00;3.85;;;;;;;1.76;66.46;102019.00;5070321;28;20473;-67
2021/03/07 03:20:51;;;;;;;12.45;4.03;;;;;;;1.75;66.43;102012.84;5070673;28;20098;-67
2021/03/07 03:23:16;;;;;;;15.80;3.72;;;;;;;1.78;66.93;102017.09;5052948;28;20419;-67
2021/03/07 03:25:42;;;;;;;13.88;4.22;;;;;;;1.76;66.97;101996.13;5070514;28;20041;-67
2021/03/07 03:28:07;;;;;;;8.10;4.10;;;;;;;1.76;66.00;102000.56;5070289;28;20461;-67
2021/03/07 03:30:34;;;;;;;13.18;4.18;;;;;;;1.71;66.42;101992.88;5053038;28;20624;-67
2021/03/07 03:32:59;;;;;;;;;;;;;;;1.65;67.49;102001.91;5053372;28;20051;-67
2021/03/07 03:35:24;;;;;;;;;;;;;;;1.68;67.32;102001.75;5056994;28;19912;-67
2021/03/07 03:37:50;;;;;;;11.23;3.80;;;;;;;1.72;67.09;101999.00;5073737;28;19912;-67
2021/03/07 03:40:19;;;;;;;11.67;4.10;;;;;;;1.67;67.84;102007.97;5073880;28;20044;-67
2021/03/07 03:42:46;;;;;;;9.55;3.97;;;;;;;1.70;67.50;101991.16;5056335;28;20295;-67
2021/03/07 03:45:13;;;;;;;10.88;4.30;;;;;;;1.74;67.07;102007.69;5074025;28;20059;-67
2021/03/07 03:47:45;;;;;;;9.32;4.10;;;;;;;1.73;67.12;101993.63;5055849;28;20056;-67
2021/03/07 03:50:12;;;;;;;10.90;4.45;;;;;;;1.69;67.67;102002.63;5070018;28;20053;-67
2021/03/07 03:52:38;;;;;;;12.02;5.70;;;;;;;1.69;67.41;101990.31;5073711;28;20486;-67
2021/03/07 03:55:12;;;;;;;11.27;3.88;;;;;;;1.67;67.69;101989.53;5072850;28;20036;-67
2021/03/07 03:57:39;;;;;;;9.57;4.10;;;;;;;1.69;68.15;101979.78;5073466;28;20080;-67
2021/03/07 04:00:07;;;;;;;9.88;3.65;;;;;;;1.68;68.34;101974.59;5073721;28;20036;-67
2021/03/07 04:02:34;;;;;;;14.60;5.07;;;;;;;1.66;68.28;101974.69;5073577;28;20044;-67
2021/03/07 04:05:02;;;;;;;14.10;4.65;;;;;;;1.66;67.62;101977.31;5073449;28;20044;-67
2021/03/07 04:07:28;;;;;;;20.52;5.70;;;;;;;1.68;67.80;101970.16;5073241;28;20127;-67
2021/03/07 04:09:54;;;;;;;13.25;4.72;;;;;;;1.67;67.59;101973.72;5073523;28;20073;-67
2021/03/07 04:12:22;;;;;;;10.55;4.40;;;;;;;1.66;67.97;101974.69;5073515;28;20040;-67
2021/03/07 04:14:49;;;;;;;18.15;5.07;;;;;;;1.66;68.16;101971.16;5073540;28;20068;-67
2021/03/07 04:17:19;;;;;;;9.48;4.60;;;;;;;1.67;68.05;101973.72;5073383;28;20357;-67
2021/03/07 04:19:46;;;;;;;16.08;5.00;;;;;;;1.65;68.78;101967.69;5072198;28;20373;-67
2021/03/07 04:22:13;;;;;;;11.88;5.22;;;;;;;1.61;68.36;101971.38;5073348;28;20044;-67
2021/03/07 04:24:39;;;;;;;22.50;5.78;;;;;;;1.62;68.41;101977.53;5073257;28;20036;-67
2021/03/07 04:27:05;;;;;;;12.83;5.00;;;;;;;1.62;68.68;101978.38;5072258;28;20445;-67
2021/03/07 04:29:31;;;;;;;14.23;5.22;;;;;;;1.64;68.72;101976.53;5072888;28;20046;-67
2021/03/07 04:31:57;;;;;;;18.90;4.78;;;;;;;1.60;68.69;101968.84;5073100;28;20090;-67
2021/03/07 04:34:22;;;;;;;8.60;5.27;;;;;;;1.59;69.36;101967.13;5072217;28;20141;-67
2021/03/07 04:36:49;;;;;;;10.07;3.75;;;;;;;1.56;68.40;101970.78;5055370;28;20381;-67
2021/03/07 04:39:15;;;;;;;14.10;4.13;;;;;;;1.60;68.55;101969.69;5071757;28;20119;-67
2021/03/07 04:41:40;;;;;;;13.50;5.10;;;;;;;1.59;68.39;101962.75;5055249;28;20124;-67
2021/03/07 04:44:06;;;;;;;17.90;3.50;;;;;;;1.60;68.01;101964.44;5072903;28;20056;-67
2021/03/07 04:46:31;;;;;;;9.65;3.20;;;;;;;1.59;67.86;101967.13;5071877;28;20075;-67
2021/03/07 04:48:57;;;;;;;16.10;3.83;;;;;;;1.57;68.62;101956.69;5072248;28;20075;-67
2021/03/07 04:51:23;;;;;;;12.43;4.63;;;;;;;1.63;68.22;101959.00;5072780;28;20033;-67
2021/03/07 04:53:48;;;;;;;13.32;4.43;;;;;;;1.57;68.41;101956.69;5055009;28;20033;-67
2021/03/07 04:56:14;;;;;;;11.40;4.17;;;;;;;1.59;68.73;101962.75;5072685;28;20036;-67
2021/03/07 04:58:40;;;;;;;11.15;4.05;;;;;;;1.56;68.62;101952.34;5072188;28;20446;-67
2021/03/07 05:01:05;;;;;;;12.73;4.43;;;;;;;1.55;68.94;101945.38;5038173;28;20101;-67
2021/03/07 05:03:32;;;;;;;11.55;3.50;;;;;;;1.62;68.62;101941.53;5054862;28;20083;-67
2021/03/07 05:05:57;;;;;;;;;;;;;;;1.58;69.01;101933.84;5038732;28;20048;-67
2021/03/07 05:08:22;;;;;;;9.43;4.20;;;;;;;1.51;68.80;101933.28;5071936;28;19927;-67
2021/03/07 05:10:48;;;;;;;10.30;3.97;;;;;;;1.54;68.70;101935.75;5072336;28;20033;-67
2021/03/07 05:13:13;;;;;;;16.77;3.57;;;;;;;1.62;68.36;101935.41;5072224;28;20453;-67
2021/03/07 05:15:38;;;;;;;13.03;3.53;;;;;;;1.59;68.18;101925.00;5072105;28;20365;-67
2021/03/07 05:18:05;;;;;;;10.07;3.47;;;;;;;1.63;68.45;101911.63;5054168;28;20036;-67
2021/03/07 05:20:31;;;;;;;11.63;2.97;;;;;;;1.66;68.19;101908.84;5054634;28;20040;-67
2021/03/07 05:22:56;;;;;;;7.80;2.77;;;;;;;1.62;68.17;101911.72;5072022;28;20113;-67
2021/03/07 05:25:21;;;;;;;7.70;3.23;;;;;;;1.64;68.66;101920.41;5072018;28;20036;-67
2021/03/07 05:27:47;;;;;;;12.40;4.30;;;;;;;1.59;69.13;101922.38;5071629;28;20044;-67
2021/03/07 05:30:12;;;;;;;10.60;3.67;;;;;;;1.68;68.88;101899.06;5037799;28;20040;-67
2021/03/07 05:32:38;;;;;;;8.40;3.13;;;;;;;1.67;69.10;101907.91;5071811;28;20044;-67
2021/03/07 05:35:03;;;;;;;8.57;3.07;;;;;;;1.76;68.84;101900.50;5054207;28;20040;-67
2021/03/07 05:37:29;;;;;;;9.10;3.38;;;;;;;1.74;68.26;101900.56;5071489;28;20043;-67
2021/03/07 05:39:54;;;;;;;16.37;3.73;;;;;;;1.75;69.02;101896.16;5054290;28;20036;-67
2021/03/07 05:42:20;;;;;;;6.83;3.33;;;;;;;1.71;69.87;101900.72;5071773;28;20040;-67
2021/03/07 05:44:45;;;;;;;10.07;2.67;;;;;;;1.71;69.04;101897.22;5054141;28;20039;-67
2021/03/07 05:47:10;;;;;;;6.57;2.37;;;;;;;1.73;69.60;101895.38;5071400;28;20055;-67
2021/03/07 05:49:36;;;;;;;14.87;3.57;;;;;;;1.72;69.75;101898.94;5071216;28;20294;-67
2021/03/07 05:52:02;;;;;;;11.67;3.27;;;;;;;1.67;69.60;101893.91;5054013;28;20036;-68
2021/03/07 05:54:27;;;;;;;8.38;3.35;;;;;;;1.73;69.39;101901.47;5053921;28;20123;-68
2021/03/07 05:56:54;;;;;;;8.20;2.97;;;;;;;1.71;69.89;101897.22;5053931;28;20496;-67
2021/03/07 05:59:20;;;;;;;9.98;2.88;;;;;;;1.75;69.84;101894.34;5071136;28;20044;-68
2021/03/07 06:01:45;;;;;;;13.70;3.58;;;;;;;1.76;70.09;101892.59;5071287;28;20036;-68
2021/03/07 06:04:11;;;;;;;6.60;2.90;;;;;;;1.69;70.25;101897.31;5071444;28;20135;-68
2021/03/07 06:06:36;;;;;;;4.43;2.50;;;;;;;1.74;70.26;101899.72;5071461;28;20037;-68
2021/03/07 06:09:22;;;;;;;15.47;3.30;;;;;;;1.74;70.56;101902.34;5070997;28;20041;-68
2021/03/07 06:11:49;;;;;;;8.25;2.42;;;;;;;1.76;70.74;101896.09;5053722;28;20047;-67
2021/03/07 06:14:29;;;;;;;11.05;2.63;;;;;;;1.78;70.83;101893.34;5071297;28;20044;-67
2021/03/07 06:17:02;;;;;;;14.07;2.95;;;;;;;1.78;70.80;101880.19;5071238;28;20036;-68
2021/03/07 06:19:29;;;;;;;11.70;2.70;;;;;;;1.77;71.40;101887.25;5070987;28;20043;-68
2021/03/07 06:21:54;;;;;;;9.95;3.33;;;;;;;1.77;71.20;101889.03;5071293;28;20024;-68
2021/03/07 06:24:38;;;;;;;11.25;3.25;;;;;;;1.80;71.03;101873.94;5053591;28;20480;-68
2021/03/07 06:27:11;;;;;;;11.18;3.65;;;;;;;1.81;71.21;101872.16;5071158;28;20043;-67
2021/03/07 06:29:38;;;;;;;15.57;3.17;;;;;;;1.81;71.16;101867.72;5053189;28;20040;-68
2021/03/07 06:32:15;;;;;;;13.93;3.30;;;;;;;1.82;70.52;101869.41;5071105;28;20028;-68
2021/03/07 06:34:42;;;;;;;9.27;3.70;;;;;;;1.83;70.94;101883.47;5071065;28;20040;-67
2021/03/07 06:37:08;;;;;;;9.52;2.92;;;;;;;1.83;70.98;101871.13;5070887;28;20070;-68
2021/03/07 06:39:33;;;;;;;10.30;3.17;;;;;;;1.93;70.72;101875.94;5070800;28;20121;-68
2021/03/07 06:42:07;;;;;;;11.23;2.87;;;;;;;1.87;71.19;101871.81;5071112;28;20051;-66
2021/03/07 06:44:34;;;;;;;11.02;3.40;;;;;;;1.85;71.16;101873.66;5071034;28;20067;-66
2021/03/07 06:47:11;;;;;;;13.20;3.08;;;;;;;1.85;71.24;101877.19;5070967;28;20101;-66
2021/03/07 06:49:37;;;;;;;14.65;3.33;;;;;;;1.88;71.14;101868.28;5045003;28;20043;-66
2021/03/07 06:52:16;;;;;;;10.55;3.47;;;;;;;1.91;71.16;101873.38;5069544;28;20032;-66
2021/03/07 06:54:44;;;;;;;12.52;3.25;;;;;;;1.87;71.46;101879.72;5069403;28;20052;-66
2021/03/07 06:57:09;;;;;;;16.30;3.20;;;;;;;1.91;71.24;101873.38;5069862;28;20048;-66
2021/03/07 06:59:35;;;;;;;12.57;3.20;;;;;;;1.96;71.18;101881.88;5070701;28;20032;-66
2021/03/07 07:02:00;;;;;;;10.93;3.07;;;;;;;1.95;70.91;101880.19;5070732;28;20083;-66
2021/03/07 07:04:40;;;;;;;11.43;2.60;;;;;;;1.90;71.41;101875.16;5069808;28;20036;-66
2021/03/07 07:07:06;;;;;;;13.70;3.03;;;;;;;1.98;71.38;101876.53;5069873;28;20419;-66
2021/03/07 07:09:32;;;;;;;9.52;4.25;;;;;;;2.04;71.59;101869.19;5072809;28;20480;-66
2021/03/07 07:11:59;;;;;;;5.70;3.00;;;;;;;1.94;71.45;101867.94;5074595;28;20115;-66
2021/03/07 07:14:29;;;;;;;;;;;;;;;1.98;71.91;101863.38;5074963;28;20071;-66
2021/03/07 07:16:55;;;;;;;4.97;2.83;;;;;;;2.09;73.72;101867.16;5074095;28;19947;-66
2021/03/07 07:19:20;;;;;;;9.07;3.00;;;;;;;2.06;71.23;101862.06;5072786;28;20365;-68
2021/03/07 07:21:47;;;;;;;11.77;3.83;;;;;;;2.04;71.87;101858.63;5056892;28;20037;-68
2021/03/07 07:24:14;;;;;;;15.73;2.33;;;;;;;2.12;71.29;101847.69;5056787;28;20300;-68
2021/03/07 07:26:39;;;;;;;12.48;2.92;;;;;;;2.17;71.46;101858.00;5074394;28;20101;-68
2021/03/07 07:29:04;;;;;;;13.53;2.60;;;;;;;2.19;71.00;101861.41;5073015;28;20048;-68
2021/03/07 07:31:49;;;;;;;7.67;2.87;;;;;;;2.27;70.66;101862.69;5074240;28;20058;-68
2021/03/07 07:34:18;;;;;;;9.15;2.50;;;;;;;2.29;70.85;101855.56;5074246;28;20036;-68
2021/03/07 07:36:53;;;;;;;8.50;4.18;;;;;;;2.46;70.59;101848.53;5074188;28;20024;-68
2021/03/07 07:39:35;;;;;;;5.20;1.95;;;;;;;2.51;70.42;101851.78;5073788;28;20438;-68
2021/03/07 07:42:23;;;;;;;12.45;2.85;;;;;;;2.61;70.22;101844.22;5073840;28;20047;-68
2021/03/07 07:44:50;;;;;;;21.15;3.42;;;;;;;2.77;69.49;101841.59;5072792;28;20028;-68
2021/03/07 07:47:16;;;;;;;;;;;;;;;2.69;69.30;101839.34;5073709;28;20044;-68
2021/03/07 07:49:42;;;;;;;;;;;;;;;2.66;69.34;101844.81;5072871;28;19912;-68
2021/03/07 07:52:26;;;;;;;10.95;3.28;;;;;;;2.83;69.40;101841.22;5073711;28;19959;-68
2021/03/07 07:55:00;;;;;;;15.75;3.30;;;;;;;2.80;69.17;101841.41;5073740;28;20083;-68
2021/03/07 07:57:40;;;;;;;13.23;3.17;;;;;;;2.94;69.10;101844.97;5072837;28;20119;-68
2021/03/07 08:00:08;;;;;;;11.52;2.63;;;;;;;3.00;69.02;101845.53;5073777;28;20072;-69
2021/03/07 08:02:45;;;;;;;10.43;3.28;;;;;;;2.90;69.49;101843.47;5072445;28;20044;-68
2021/03/07 08:05:20;;;;;;;12.13;3.58;;;;;;;2.91;68.87;101837.22;5073609;28;20517;-68
2021/03/07 08:08:01;;;;;;;8.48;2.60;;;;;;;2.94;68.91;101847.59;5073214;28;20037;-68
2021/03/07 08:10:40;;;;;;;7.60;2.55;;;;;;;3.02;69.00;101833.13;5072570;28;20036;-68
2021/03/07 08:13:15;;;;;;;7.07;3.35;;;;;;;3.11;68.98;101832.59;5072535;28;20037;-68
2021/03/07 08:15:49;;;;;;;12.55;3.38;;;;;;;3.08;68.73;101827.50;5072617;28;20060;-68
2021/03/07 08:18:19;;;;;;;10.27;2.22;;;;;;;3.30;68.25;101820.06;5073038;28;20441;-68
2021/03/07 08:20:44;;;;;;;8.50;2.47;;;;;;;3.31;67.97;101827.03;5072275;28;20036;-68
2021/03/07 08:23:14;;;;;;;11.53;2.50;;;;;;;3.31;67.86;101815.63;5073300;28;20040;-69
2021/03/07 08:25:48;;;;;;;19.33;3.45;;;;;;;3.24;68.34;101822.22;5073116;28;20036;-68
2021/03/07 08:28:25;;;;;;;3.65;2.00;;;;;;;3.11;68.99;101819.41;5072808;28;20102;-68
2021/03/07 08:30:51;;;;;;;6.85;2.38;;;;;;;3.19;68.80;101826.91;5073173;28;20064;-68
2021/03/07 08:33:28;;;;;;;10.98;2.90;;;;;;;3.23;68.61;101839.84;5073142;28;20400;-68
2021/03/07 08:36:24;;;;;;;8.70;3.38;;;;;;;3.09;69.18;101822.16;5072836;28;20115;-68
2021/03/07 08:38:53;;;;;;;10.55;2.83;;;;;;;3.22;69.21;101824.94;5072731;28;20338;-69
2021/03/07 08:41:33;;;;;;;6.13;3.00;;;;;;;3.21;69.43;101822.34;5072005;28;20035;-68
2021/03/07 08:43:59;;;;;;;10.57;3.95;;;;;;;3.22;69.17;101816.16;5071969;28;20036;-69
2021/03/07 08:46:46;;;;;;;10.70;2.33;;;;;;;3.19;69.47;101806.63;5072781;28;20048;-68
2021/03/07 08:49:16;;;;;;;11.32;2.38;;;;;;;3.19;69.07;101814.56;5054648;28;20056;-68
2021/03/07 08:51:48;;;;;;;13.63;2.72;;;;;;;3.17;69.59;101812.00;5072716;28;20109;-68
2021/03/07 08:54:22;;;;;;;8.50;2.67;;;;;;;3.27;69.41;101800.91;5072716;28;20028;-68
2021/03/07 08:56:49;;;;;;;8.65;2.92;;;;;;;3.14;69.32;101795.50;5072513;28;20040;-68
2021/03/07 08:59:14;;;;;;;9.27;3.25;;;;;;;3.21;69.28;101815.31;5054692;28;20060;-68
2021/03/07 09:01:41;;;;;;;11.77;3.67;;;;;;;3.26;69.17;101807.13;5071563;28;20138;-68
2021/03/07 09:04:08;;;;;;;12.18;2.95;;;;;;;3.29;69.28;101815.72;5072499;28;20137;-68
2021/03/07 09:06:38;;;;;;;5.20;2.63;;;;;;;3.37;69.27;101804.69;5072484;28;20037;-69
2021/03/07 09:09:15;;;;;;;13.73;3.30;;;;;;;3.32;68.86;101804.97;5071944;28;20075;-68
2021/03/07 09:11:54;;;;;;;18.23;2.95;;;;;;;3.39;69.08;101802.81;5072431;28;20044;-68
2021/03/07 09:14:36;;;;;;;14.68;4.57;;;;;;;3.46;69.14;101796.22;5072303;28;20036;-68
2021/03/07 09:17:32;;;;;;;12.75;3.15;;;;;;;3.38;68.38;101799.34;5072143;28;20044;-68
2021/03/07 09:19:57;;;;;;;13.80;3.33;;;;;;;3.41;68.80;101795.66;5070761;28;20049;-69
2021/03/07 09:22:28;;;;;;;12.20;2.63;;;;;;;3.36;69.04;101798.56;5072213;28;20450;-68
2021/03/07 09:25:07;;;;;;;9.93;3.85;;;;;;;3.38;68.84;101793.22;5072030;28;20464;-69
2021/03/07 09:27:35;;;;;;;8.07;2.88;;;;;;;3.41;69.06;101792.19;5071576;28;20508;-68
2021/03/07 09:30:09;;;;;;;9.60;3.28;;;;;;;3.33;68.50;101785.56;5071845;28;20038;-68
2021/03/07 09:32:41;;;;;;;7.95;3.00;;;;;;;3.44;68.63;101782.31;5071597;28;20043;-68
2021/03/07 09:35:21;;;;;;;13.48;3.17;;;;;;;3.48;68.47;101789.06;5071036;28;20036;-68
2021/03/07 09:38:02;;;;;;;8.13;2.63;;;;;;;3.46;68.95;101787.47;5070549;28;20036;-69
2021/03/07 09:40:32;;;;;;;14.32;3.33;;;;;;;3.51;68.42;101781.00;5071689;28;20467;-68
2021/03/07 09:43:04;;;;;;;8.57;3.70;;;;;;;3.45;68.67;101783.16;5070834;28;20040;-68
2021/03/07 09:45:30;;;;;;;11.82;4.82;;;;;;;3.49;68.88;101782.88;5071761;28;20175;-68
2021/03/07 09:47:56;;;;;;;15.90;3.33;;;;;;;3.62;68.60;101777.69;5071373;28;20052;-68
2021/03/07 09:50:23;;;;;;;5.63;3.35;;;;;;;3.63;68.26;101778.53;5070595;28;20052;-68
2021/03/07 09:52:49;;;;;;;10.82;3.63;;;;;;;3.58;68.08;101771.75;5071562;28;20044;-68
2021/03/07 09:55:35;;;;;;;10.60;4.72;;;;;;;3.63;68.03;101779.41;5071629;28;20036;-68
2021/03/07 09:58:09;;;;;;;21.92;4.28;;;;;;;3.73;68.57;101777.06;5071230;28;20119;-69
2021/03/07 10:00:36;;;;;;;8.73;3.55;;;;;;;3.74;68.15;101789.31;5071563;28;20131;-68
2021/03/07 10:03:03;;;;;;;12.23;3.45;;;;;;;3.76;68.17;101768.94;5071533;28;20044;-68
2021/03/07 10:05:29;;;;;;;8.68;3.92;;;;;;;3.92;68.13;101780.28;5053702;28;20032;-69
2021/03/07 10:07:54;;;;;;;13.90;5.55;;;;;;;3.97;67.89;101779.97;5071126;28;20062;-68
2021/03/07 10:10:25;;;;;;;9.73;3.77;;;;;;;4.00;67.81;101756.88;5071408;28;20335;-68
2021/03/07 10:12:56;;;;;;;15.75;4.35;;;;;;;4.21;67.13;101775.84;5071372;28;20078;-68
2021/03/07 10:15:29;;;;;;;17.25;5.72;;;;;;;4.29;66.96;101777.16;5070436;28;20433;-68
2021/03/07 10:18:03;;;;;;;15.57;5.55;;;;;;;4.54;65.60;101774.66;5070051;28;20040;-68
2021/03/07 10:20:37;;;;;;;7.57;4.32;;;;;;;4.62;65.68;101771.50;5071374;28;20028;-68
2021/03/07 10:23:03;;;;;;;9.10;4.65;;;;;;;4.75;65.61;101748.59;5071285;28;20039;-68
2021/03/07 10:25:35;;;;;;;14.20;5.03;;;;;;;4.97;65.22;101721.56;5071301;28;20032;-69
2021/03/07 10:28:03;;;;;;;13.15;5.05;;;;;;;6.31;60.88;101721.09;5070902;28;20029;-69
2021/03/07 10:30:31;;;;;;;12.27;4.43;;;;;;;6.84;59.24;101719.94;5070114;28;20138;-69
2021/03/07 10:33:26;;;;;;;12.52;5.50;;;;;;;7.09;58.28;101717.13;5071221;28;20044;-69
2021/03/07 10:36:03;;;;;;;10.70;4.88;;;;;;;7.77;56.10;101712.78;5070262;28;20052;-69
2021/03/07 10:38:44;;;;;;;13.60;5.10;;;;;;;7.56;56.62;101711.78;5070905;28;20036;-69
2021/03/07 10:41:17;;;;;;;10.35;4.38;;;;;;;7.05;57.93;101720.16;5070150;28;20028;-69
2021/03/07 10:43:56;;;;;;;12.45;4.90;;;;;;;7.73;56.36;101706.00;5072261;28;20629;-69
2021/03/07 10:46:27;;;;;;;14.93;6.45;;;;;;;7.09;57.63;101711.81;5057425;28;20096;-69
2021/03/07 10:48:57;;;;;;;21.90;6.43;;;;;;;7.19;58.21;101704.00;5074699;28;20060;-69
2021/03/07 10:51:23;;;;;;;17.50;6.13;;;;;;;6.37;59.78;101697.75;5074919;28;20041;-69
2021/03/07 10:53:49;;;;;;;16.70;6.20;;;;;;;6.80;60.02;101705.22;5057367;28;20410;-69
2021/03/07 10:56:14;;;;;;;12.63;4.90;;;;;;;6.75;59.02;101703.75;5040692;28;20044;-69
2021/03/07 10:58:40;;;;;;;13.43;5.13;;;;;;;5.74;62.07;101695.13;5040293;28;20066;-69
2021/03/07 11:01:05;;;;;;;20.57;6.50;;;;;;;5.79;63.12;101686.84;5074848;28;20028;-69
2021/03/07 11:03:32;;;;;;;13.90;6.40;;;;;;;5.88;62.55;101683.56;5057286;28;20493;-69
2021/03/07 11:05:57;;;;;;;;;;;;;;;5.85;62.86;101697.88;5057549;28;20079;-69
2021/03/07 11:08:22;;;;;;;;;;;;;;;5.43;63.64;101689.31;5074803;28;19967;-69
2021/03/07 11:10:47;;;;;;;9.07;5.03;;;;;;;5.54;64.33;101695.66;5057178;28;19909;-69
2021/03/07 11:13:13;;;;;;;13.10;5.70;;;;;;;5.42;64.16;101694.72;5074599;28;20036;-69
2021/03/07 11:15:38;;;;;;;15.93;5.87;;;;;;;5.59;63.66;101689.06;5074614;28;20028;-69
2021/03/07 11:18:04;;;;;;;18.97;6.83;;;;;;;5.61;63.35;101689.00;5057398;28;20024;-66
2021/03/07 11:20:30;;;;;;;13.35;5.30;;;;;;;5.66;63.01;101681.56;5074252;28;20048;-67
2021/03/07 11:22:55;;;;;;;17.33;6.17;;;;;;;5.58;63.44;101675.97;5074469;28;20032;-67
2021/03/07 11:25:21;;;;;;;14.00;5.57;;;;;;;5.32;63.84;101675.97;5040190;28;20040;-67
2021/03/07 11:27:46;;;;;;;8.87;5.50;;;;;;;5.27;64.35;101673.63;5073949;28;20036;-67
2021/03/07 11:30:12;;;;;;;15.10;5.80;;;;;;;5.27;64.79;101676.28;5074317;28;20376;-67
2021/03/07 11:32:37;;;;;;;10.65;4.47;;;;;;;5.32;64.22;101686.56;5074308;28;20409;-66
2021/03/07 11:35:03;;;;;;;12.60;4.30;;;;;;;5.47;63.59;101682.00;5074121;28;20055;-67
2021/03/07 11:37:29;;;;;;;12.13;4.95;;;;;;;5.50;63.60;101682.66;5073956;28;20036;-67
2021/03/07 11:39:54;;;;;;;12.10;4.83;;;;;;;5.59;64.01;101678.47;5056434;28;20047;-66